sensor_id;sensor_type;location;lat;lon;timestamp;temperature;humidity
47618;DHT22;33336;36.728;-4.414;2024-03-08T00:03:02;14.20;99.90
47618;DHT22;33336;36.728;-4.414;2024-03-08T00:08:06;13.80;99.90
47618;DHT22;33336;36.728;-4.414;2024-03-08T00:13:12;13.80;99.90
47618;DHT22;33336;36.728;-4.414;2024-03-08T00:18:16;13.80;99.90
47618;DHT22;33336;36.728;-4.414;2024-03-08T00:23:20;13.90;99.90
47618;DHT22;33336;36.728;-4.414;2024-03-08T00:28:23;13.40;99.90
47618;DHT22;33336;36.728;-4.414;2024-03-08T00:33:28;13.60;99.90
47618;DHT22;33336;36.728;-4.414;2024-03-08T00:38:32;13.70;99.90
47618;DHT22;33336;36.728;-4.414;2024-03-08T00:43:36;14.00;99.70
47618;DHT22;33336;36.728;-4.414;2024-03-08T00:48:41;14.20;99.90
47618;DHT22;33336;36.728;-4.414;2024-03-08T00:53:45;14.50;99.90
47618;DHT22;33336;36.728;-4.414;2024-03-08T00:58:48;14.50;99.90
47618;DHT22;33336;36.728;-4.414;2024-03-08T01:03:54;14.60;99.90
47618;DHT22;33336;36.728;-4.414;2024-03-08T01:08:58;14.70;99.90
47618;DHT22;33336;36.728;-4.414;2024-03-08T01:14:02;14.70;99.90
47618;DHT22;33336;36.728;-4.414;2024-03-08T01:19:06;14.60;99.90
47618;DHT22;33336;36.728;-4.414;2024-03-08T01:24:10;14.50;99.60
47618;DHT22;33336;36.728;-4.414;2024-03-08T01:29:13;14.20;99.70
47618;DHT22;33336;36.728;-4.414;2024-03-08T01:34:18;14.40;99.50
47618;DHT22;33336;36.728;-4.414;2024-03-08T01:39:21;14.60;99.10
47618;DHT22;33336;36.728;-4.414;2024-03-08T01:44:25;14.70;98.70
47618;DHT22;33336;36.728;-4.414;2024-03-08T01:49:29;14.60;98.60
47618;DHT22;33336;36.728;-4.414;2024-03-08T01:54:34;14.70;98.40
47618;DHT22;33336;36.728;-4.414;2024-03-08T01:59:37;14.80;98.30
47618;DHT22;33336;36.728;-4.414;2024-03-08T02:04:44;14.40;99.30
47618;DHT22;33336;36.728;-4.414;2024-03-08T02:09:47;14.10;99.10
47618;DHT22;33336;36.728;-4.414;2024-03-08T02:14:51;14.30;99.40
47618;DHT22;33336;36.728;-4.414;2024-03-08T02:19:58;13.70;99.90
47618;DHT22;33336;36.728;-4.414;2024-03-08T02:25:06;13.60;99.90
47618;DHT22;33336;36.728;-4.414;2024-03-08T02:30:10;14.10;99.90
47618;DHT22;33336;36.728;-4.414;2024-03-08T02:35:15;14.10;99.90
47618;DHT22;33336;36.728;-4.414;2024-03-08T02:40:19;14.20;99.60
47618;DHT22;33336;36.728;-4.414;2024-03-08T02:45:24;14.20;99.80
47618;DHT22;33336;36.728;-4.414;2024-03-08T02:50:27;13.60;99.60
47618;DHT22;33336;36.728;-4.414;2024-03-08T02:55:33;13.60;99.90
47618;DHT22;33336;36.728;-4.414;2024-03-08T03:00:37;13.60;99.90
47618;DHT22;33336;36.728;-4.414;2024-03-08T03:05:43;13.80;99.70
47618;DHT22;33336;36.728;-4.414;2024-03-08T03:10:47;13.20;99.90
47618;DHT22;33336;36.728;-4.414;2024-03-08T03:15:51;13.60;99.90
47618;DHT22;33336;36.728;-4.414;2024-03-08T03:20:54;13.60;99.60
47618;DHT22;33336;36.728;-4.414;2024-03-08T03:26:00;13.80;99.50
47618;DHT22;33336;36.728;-4.414;2024-03-08T03:31:04;13.40;99.90
47618;DHT22;33336;36.728;-4.414;2024-03-08T03:36:09;13.60;99.90
47618;DHT22;33336;36.728;-4.414;2024-03-08T03:41:14;13.70;99.70
47618;DHT22;33336;36.728;-4.414;2024-03-08T03:46:18;13.60;99.80
47618;DHT22;33336;36.728;-4.414;2024-03-08T03:51:21;13.50;99.70
47618;DHT22;33336;36.728;-4.414;2024-03-08T03:56:27;13.70;99.90
47618;DHT22;33336;36.728;-4.414;2024-03-08T04:01:30;13.60;99.90
47618;DHT22;33336;36.728;-4.414;2024-03-08T04:06:33;13.70;99.90
47618;DHT22;33336;36.728;-4.414;2024-03-08T04:11:37;13.20;99.90
47618;DHT22;33336;36.728;-4.414;2024-03-08T04:16:42;13.30;99.90
47618;DHT22;33336;36.728;-4.414;2024-03-08T04:21:44;13.00;99.90
47618;DHT22;33336;36.728;-4.414;2024-03-08T04:26:51;12.20;99.90
47618;DHT22;33336;36.728;-4.414;2024-03-08T04:31:54;12.40;99.90
47618;DHT22;33336;36.728;-4.414;2024-03-08T04:36:58;11.90;99.90
47618;DHT22;33336;36.728;-4.414;2024-03-08T04:42:03;12.70;99.90
47618;DHT22;33336;36.728;-4.414;2024-03-08T04:47:09;12.70;99.90
47618;DHT22;33336;36.728;-4.414;2024-03-08T04:52:12;12.70;99.90
47618;DHT22;33336;36.728;-4.414;2024-03-08T04:57:18;12.70;99.90
47618;DHT22;33336;36.728;-4.414;2024-03-08T05:02:20;12.50;99.90
47618;DHT22;33336;36.728;-4.414;2024-03-08T05:07:25;11.90;99.90
47618;DHT22;33336;36.728;-4.414;2024-03-08T05:12:29;12.00;99.90
47618;DHT22;33336;36.728;-4.414;2024-03-08T05:17:33;12.30;99.90
47618;DHT22;33336;36.728;-4.414;2024-03-08T05:22:36;12.70;99.90
47618;DHT22;33336;36.728;-4.414;2024-03-08T05:27:41;12.90;99.90
47618;DHT22;33336;36.728;-4.414;2024-03-08T05:32:44;12.90;99.90
47618;DHT22;33336;36.728;-4.414;2024-03-08T05:37:48;12.60;99.90
47618;DHT22;33336;36.728;-4.414;2024-03-08T05:42:52;12.80;99.90
47618;DHT22;33336;36.728;-4.414;2024-03-08T05:47:55;12.40;99.90
47618;DHT22;33336;36.728;-4.414;2024-03-08T05:52:58;12.40;99.90
47618;DHT22;33336;36.728;-4.414;2024-03-08T05:58:04;12.60;99.90
47618;DHT22;33336;36.728;-4.414;2024-03-08T06:03:08;12.60;99.90
47618;DHT22;33336;36.728;-4.414;2024-03-08T06:08:13;12.80;99.90
47618;DHT22;33336;36.728;-4.414;2024-03-08T06:13:18;12.90;99.90
47618;DHT22;33336;36.728;-4.414;2024-03-08T06:18:22;13.00;99.90
47618;DHT22;33336;36.728;-4.414;2024-03-08T06:23:25;12.50;99.90
47618;DHT22;33336;36.728;-4.414;2024-03-08T06:28:31;12.50;99.90
47618;DHT22;33336;36.728;-4.414;2024-03-08T06:33:34;12.50;99.90
47618;DHT22;33336;36.728;-4.414;2024-03-08T06:38:40;12.70;99.90
47618;DHT22;33336;36.728;-4.414;2024-03-08T06:43:46;12.80;99.90
47618;DHT22;33336;36.728;-4.414;2024-03-08T06:48:49;12.90;99.90
47618;DHT22;33336;36.728;-4.414;2024-03-08T06:53:52;13.00;99.90
47618;DHT22;33336;36.728;-4.414;2024-03-08T06:58:57;13.10;99.90
47618;DHT22;33336;36.728;-4.414;2024-03-08T07:04:01;13.20;99.90
47618;DHT22;33336;36.728;-4.414;2024-03-08T07:09:07;13.10;99.90
47618;DHT22;33336;36.728;-4.414;2024-03-08T07:14:11;13.10;99.90
47618;DHT22;33336;36.728;-4.414;2024-03-08T07:19:16;13.10;99.90
47618;DHT22;33336;36.728;-4.414;2024-03-08T07:24:20;13.20;99.90
47618;DHT22;33336;36.728;-4.414;2024-03-08T07:29:43;13.40;99.90
47618;DHT22;33336;36.728;-4.414;2024-03-08T07:34:47;13.30;99.90
47618;DHT22;33336;36.728;-4.414;2024-03-08T07:39:51;13.30;99.90
47618;DHT22;33336;36.728;-4.414;2024-03-08T07:44:55;13.30;99.90
47618;DHT22;33336;36.728;-4.414;2024-03-08T07:49:59;12.80;99.90
47618;DHT22;33336;36.728;-4.414;2024-03-08T07:55:02;13.30;99.90
47618;DHT22;33336;36.728;-4.414;2024-03-08T08:00:10;13.30;99.90
47618;DHT22;33336;36.728;-4.414;2024-03-08T08:05:18;13.10;99.90
47618;DHT22;33336;36.728;-4.414;2024-03-08T08:10:21;13.60;99.30
47618;DHT22;33336;36.728;-4.414;2024-03-08T08:15:27;13.30;99.40
47618;DHT22;33336;36.728;-4.414;2024-03-08T08:20:31;13.00;99.90
47618;DHT22;33336;36.728;-4.414;2024-03-08T08:25:34;12.70;99.90
47618;DHT22;33336;36.728;-4.414;2024-03-08T08:30:39;12.60;99.90
47618;DHT22;33336;36.728;-4.414;2024-03-08T08:35:42;12.80;99.90
47618;DHT22;33336;36.728;-4.414;2024-03-08T08:40:45;13.60;99.20
47618;DHT22;33336;36.728;-4.414;2024-03-08T08:45:50;14.00;98.50
47618;DHT22;33336;36.728;-4.414;2024-03-08T08:50:57;14.90;97.30
47618;DHT22;33336;36.728;-4.414;2024-03-08T08:56:00;15.30;96.80
47618;DHT22;33336;36.728;-4.414;2024-03-08T09:01:05;15.30;96.20
47618;DHT22;33336;36.728;-4.414;2024-03-08T09:06:08;14.30;96.90
47618;DHT22;33336;36.728;-4.414;2024-03-08T09:11:13;14.70;96.90
47618;DHT22;33336;36.728;-4.414;2024-03-08T09:16:18;14.90;96.70
47618;DHT22;33336;36.728;-4.414;2024-03-08T09:21:21;14.60;96.70
47618;DHT22;33336;36.728;-4.414;2024-03-08T09:26:25;14.60;96.90
47618;DHT22;33336;36.728;-4.414;2024-03-08T09:31:31;14.30;96.80
47618;DHT22;33336;36.728;-4.414;2024-03-08T09:36:34;14.30;97.10
47618;DHT22;33336;36.728;-4.414;2024-03-08T09:41:37;14.70;97.40
47618;DHT22;33336;36.728;-4.414;2024-03-08T09:46:42;14.90;96.20
47618;DHT22;33336;36.728;-4.414;2024-03-08T09:51:46;14.80;95.90
47618;DHT22;33336;36.728;-4.414;2024-03-08T09:56:51;15.10;95.50
47618;DHT22;33336;36.728;-4.414;2024-03-08T10:01:56;15.10;94.80
47618;DHT22;33336;36.728;-4.414;2024-03-08T10:07:01;15.00;95.30
47618;DHT22;33336;36.728;-4.414;2024-03-08T10:12:05;15.20;95.20
47618;DHT22;33336;36.728;-4.414;2024-03-08T10:17:09;15.40;95.10
47618;DHT22;33336;36.728;-4.414;2024-03-08T10:22:15;16.80;95.00
47618;DHT22;33336;36.728;-4.414;2024-03-08T10:27:18;16.00;93.70
47618;DHT22;33336;36.728;-4.414;2024-03-08T10:32:23;16.00;93.70
47618;DHT22;33336;36.728;-4.414;2024-03-08T10:37:27;16.20;93.90
47618;DHT22;33336;36.728;-4.414;2024-03-08T10:42:31;16.20;94.50
47618;DHT22;33336;36.728;-4.414;2024-03-08T10:47:40;16.00;94.00
47618;DHT22;33336;36.728;-4.414;2024-03-08T10:52:45;15.90;93.20
47618;DHT22;33336;36.728;-4.414;2024-03-08T10:57:50;15.80;93.40
47618;DHT22;33336;36.728;-4.414;2024-03-08T11:02:55;16.20;93.30
47618;DHT22;33336;36.728;-4.414;2024-03-08T11:07:59;16.90;93.10
47618;DHT22;33336;36.728;-4.414;2024-03-08T11:13:02;16.60;91.80
47618;DHT22;33336;36.728;-4.414;2024-03-08T11:18:07;15.90;91.70
47618;DHT22;33336;36.728;-4.414;2024-03-08T11:23:12;16.40;92.40
47618;DHT22;33336;36.728;-4.414;2024-03-08T11:28:18;16.70;92.90
47618;DHT22;33336;36.728;-4.414;2024-03-08T11:33:23;16.70;94.00
47618;DHT22;33336;36.728;-4.414;2024-03-08T11:38:26;16.80;93.50
47618;DHT22;33336;36.728;-4.414;2024-03-08T11:43:29;17.20;93.00
47618;DHT22;33336;36.728;-4.414;2024-03-08T11:48:34;17.50;92.70
47618;DHT22;33336;36.728;-4.414;2024-03-08T11:53:40;18.10;92.70
47618;DHT22;33336;36.728;-4.414;2024-03-08T11:58:53;17.20;93.00
47618;DHT22;33336;36.728;-4.414;2024-03-08T12:03:59;16.90;93.20
47618;DHT22;33336;36.728;-4.414;2024-03-08T12:09:03;18.50;92.40
47618;DHT22;33336;36.728;-4.414;2024-03-08T12:14:07;17.60;91.80
47618;DHT22;33336;36.728;-4.414;2024-03-08T12:19:11;17.30;91.90
47618;DHT22;33336;36.728;-4.414;2024-03-08T12:24:17;17.60;91.80
47618;DHT22;33336;36.728;-4.414;2024-03-08T12:29:22;17.80;91.30
47618;DHT22;33336;36.728;-4.414;2024-03-08T12:34:28;18.10;91.90
47618;DHT22;33336;36.728;-4.414;2024-03-08T12:39:31;18.10;91.90
47618;DHT22;33336;36.728;-4.414;2024-03-08T12:44:34;18.10;91.70
47618;DHT22;33336;36.728;-4.414;2024-03-08T12:49:45;17.60;92.20
47618;DHT22;33336;36.728;-4.414;2024-03-08T12:54:49;17.40;91.60
47618;DHT22;33336;36.728;-4.414;2024-03-08T12:59:53;18.00;89.50
47618;DHT22;33336;36.728;-4.414;2024-03-08T13:04:58;17.50;87.80
47618;DHT22;33336;36.728;-4.414;2024-03-08T13:10:04;17.90;88.90
47618;DHT22;33336;36.728;-4.414;2024-03-08T13:15:09;17.90;93.00
47618;DHT22;33336;36.728;-4.414;2024-03-08T13:20:18;17.50;93.80
47618;DHT22;33336;36.728;-4.414;2024-03-08T13:25:22;17.60;92.90
47618;DHT22;33336;36.728;-4.414;2024-03-08T13:30:25;18.10;90.60
47618;DHT22;33336;36.728;-4.414;2024-03-08T13:35:31;18.30;91.20
47618;DHT22;33336;36.728;-4.414;2024-03-08T13:40:35;19.50;92.30
47618;DHT22;33336;36.728;-4.414;2024-03-08T13:45:39;18.00;86.20
47618;DHT22;33336;36.728;-4.414;2024-03-08T13:50:43;19.20;89.50
47618;DHT22;33336;36.728;-4.414;2024-03-08T13:55:47;19.20;87.10
47618;DHT22;33336;36.728;-4.414;2024-03-08T14:00:50;18.10;88.80
47618;DHT22;33336;36.728;-4.414;2024-03-08T14:05:56;17.90;92.80
47618;DHT22;33336;36.728;-4.414;2024-03-08T14:10:58;16.10;95.80
47618;DHT22;33336;36.728;-4.414;2024-03-08T14:16:06;16.10;95.20
47618;DHT22;33336;36.728;-4.414;2024-03-08T14:21:12;16.40;95.00
47618;DHT22;33336;36.728;-4.414;2024-03-08T14:26:16;16.30;95.60
47618;DHT22;33336;36.728;-4.414;2024-03-08T14:31:19;16.50;95.80
47618;DHT22;33336;36.728;-4.414;2024-03-08T14:36:24;16.60;95.90
47618;DHT22;33336;36.728;-4.414;2024-03-08T14:41:28;18.00;91.30
47618;DHT22;33336;36.728;-4.414;2024-03-08T14:46:32;18.10;90.20
47618;DHT22;33336;36.728;-4.414;2024-03-08T14:51:36;18.20;90.40
47618;DHT22;33336;36.728;-4.414;2024-03-08T14:56:40;18.00;90.10
47618;DHT22;33336;36.728;-4.414;2024-03-08T15:01:44;17.80;90.50
47618;DHT22;33336;36.728;-4.414;2024-03-08T15:06:50;18.30;90.30
47618;DHT22;33336;36.728;-4.414;2024-03-08T15:11:52;19.60;89.50
47618;DHT22;33336;36.728;-4.414;2024-03-08T15:16:59;19.70;87.70
47618;DHT22;33336;36.728;-4.414;2024-03-08T15:22:10;19.30;87.50
47618;DHT22;33336;36.728;-4.414;2024-03-08T15:27:14;18.30;88.70
47618;DHT22;33336;36.728;-4.414;2024-03-08T15:32:17;18.20;90.00
47618;DHT22;33336;36.728;-4.414;2024-03-08T15:37:24;17.80;90.40
47618;DHT22;33336;36.728;-4.414;2024-03-08T15:42:29;17.80;90.20
47618;DHT22;33336;36.728;-4.414;2024-03-08T15:47:37;17.70;90.40
47618;DHT22;33336;36.728;-4.414;2024-03-08T15:52:46;17.80;90.20
47618;DHT22;33336;36.728;-4.414;2024-03-08T15:57:51;18.10;90.30
47618;DHT22;33336;36.728;-4.414;2024-03-08T16:02:55;17.70;90.80
47618;DHT22;33336;36.728;-4.414;2024-03-08T16:08:02;17.90;90.60
47618;DHT22;33336;36.728;-4.414;2024-03-08T16:13:06;18.60;90.10
47618;DHT22;33336;36.728;-4.414;2024-03-08T16:18:10;20.70;87.50
47618;DHT22;33336;36.728;-4.414;2024-03-08T16:23:15;20.50;86.40
47618;DHT22;33336;36.728;-4.414;2024-03-08T16:28:20;19.40;86.60
47618;DHT22;33336;36.728;-4.414;2024-03-08T16:33:28;21.20;85.70
47618;DHT22;33336;36.728;-4.414;2024-03-08T16:38:32;22.60;82.60
47618;DHT22;33336;36.728;-4.414;2024-03-08T16:43:38;21.70;81.40
47618;DHT22;33336;36.728;-4.414;2024-03-08T16:48:41;20.80;83.10
47618;DHT22;33336;36.728;-4.414;2024-03-08T16:53:45;20.00;84.90
47618;DHT22;33336;36.728;-4.414;2024-03-08T16:58:51;18.00;95.30
47618;DHT22;33336;36.728;-4.414;2024-03-08T17:03:55;17.70;95.60
47618;DHT22;33336;36.728;-4.414;2024-03-08T17:09:03;17.30;98.10
47618;DHT22;33336;36.728;-4.414;2024-03-08T17:14:11;17.50;98.30
47618;DHT22;33336;36.728;-4.414;2024-03-08T17:19:16;17.60;98.20
47618;DHT22;33336;36.728;-4.414;2024-03-08T17:24:20;17.50;98.30
47618;DHT22;33336;36.728;-4.414;2024-03-08T17:29:26;17.80;97.90
47618;DHT22;33336;36.728;-4.414;2024-03-08T17:34:28;17.80;98.10
47618;DHT22;33336;36.728;-4.414;2024-03-08T17:39:37;17.90;97.40
47618;DHT22;33336;36.728;-4.414;2024-03-08T17:44:41;17.20;96.80
47618;DHT22;33336;36.728;-4.414;2024-03-08T17:49:47;16.60;97.60
47618;DHT22;33336;36.728;-4.414;2024-03-08T17:54:53;16.60;97.40
47618;DHT22;33336;36.728;-4.414;2024-03-08T17:59:57;17.00;96.20
47618;DHT22;33336;36.728;-4.414;2024-03-08T18:05:00;16.60;96.10
47618;DHT22;33336;36.728;-4.414;2024-03-08T18:10:09;16.60;95.90
47618;DHT22;33336;36.728;-4.414;2024-03-08T18:15:19;16.50;96.40
47618;DHT22;33336;36.728;-4.414;2024-03-08T18:20:29;16.10;97.00
47618;DHT22;33336;36.728;-4.414;2024-03-08T18:25:34;16.20;97.50
47618;DHT22;33336;36.728;-4.414;2024-03-08T18:30:41;16.30;97.90
47618;DHT22;33336;36.728;-4.414;2024-03-08T18:35:44;16.40;97.80
47618;DHT22;33336;36.728;-4.414;2024-03-08T18:40:51;16.60;97.70
47618;DHT22;33336;36.728;-4.414;2024-03-08T18:45:54;17.70;96.60
47618;DHT22;33336;36.728;-4.414;2024-03-08T18:50:59;16.80;96.50
47618;DHT22;33336;36.728;-4.414;2024-03-08T18:56:04;16.80;97.60
47618;DHT22;33336;36.728;-4.414;2024-03-08T19:01:10;15.80;99.90
47618;DHT22;33336;36.728;-4.414;2024-03-08T19:06:13;16.10;99.90
47618;DHT22;33336;36.728;-4.414;2024-03-08T19:11:22;15.30;99.90
47618;DHT22;33336;36.728;-4.414;2024-03-08T19:16:24;14.90;99.90
47618;DHT22;33336;36.728;-4.414;2024-03-08T19:21:28;15.20;99.90
47618;DHT22;33336;36.728;-4.414;2024-03-08T19:26:34;15.30;99.90
47618;DHT22;33336;36.728;-4.414;2024-03-08T19:31:39;15.20;99.90
47618;DHT22;33336;36.728;-4.414;2024-03-08T19:36:42;15.20;99.90
47618;DHT22;33336;36.728;-4.414;2024-03-08T19:41:47;15.40;99.90
47618;DHT22;33336;36.728;-4.414;2024-03-08T19:46:50;15.30;99.90
47618;DHT22;33336;36.728;-4.414;2024-03-08T19:51:54;15.10;99.90
47618;DHT22;33336;36.728;-4.414;2024-03-08T19:56:58;15.20;99.90
47618;DHT22;33336;36.728;-4.414;2024-03-08T20:02:05;15.50;99.90
47618;DHT22;33336;36.728;-4.414;2024-03-08T20:07:08;15.40;99.90
47618;DHT22;33336;36.728;-4.414;2024-03-08T20:12:13;15.60;99.90
47618;DHT22;33336;36.728;-4.414;2024-03-08T20:17:17;15.20;99.90
47618;DHT22;33336;36.728;-4.414;2024-03-08T20:22:22;15.10;99.90
47618;DHT22;33336;36.728;-4.414;2024-03-08T20:27:26;15.20;99.90
47618;DHT22;33336;36.728;-4.414;2024-03-08T20:32:31;14.60;99.90
47618;DHT22;33336;36.728;-4.414;2024-03-08T20:37:34;14.70;99.90
47618;DHT22;33336;36.728;-4.414;2024-03-08T20:42:39;14.60;99.90
47618;DHT22;33336;36.728;-4.414;2024-03-08T20:47:42;14.80;99.90
47618;DHT22;33336;36.728;-4.414;2024-03-08T20:52:46;14.90;99.90
47618;DHT22;33336;36.728;-4.414;2024-03-08T20:57:52;14.80;99.90
47618;DHT22;33336;36.728;-4.414;2024-03-08T21:02:56;14.80;99.90
47618;DHT22;33336;36.728;-4.414;2024-03-08T21:07:59;14.60;99.90
47618;DHT22;33336;36.728;-4.414;2024-03-08T21:13:07;14.90;99.90
47618;DHT22;33336;36.728;-4.414;2024-03-08T21:18:12;14.60;99.90
47618;DHT22;33336;36.728;-4.414;2024-03-08T21:23:16;14.80;99.90
47618;DHT22;33336;36.728;-4.414;2024-03-08T21:28:22;15.10;99.90
47618;DHT22;33336;36.728;-4.414;2024-03-08T21:33:31;15.70;99.90
47618;DHT22;33336;36.728;-4.414;2024-03-08T21:38:35;15.80;99.90
47618;DHT22;33336;36.728;-4.414;2024-03-08T21:43:41;15.10;99.90
47618;DHT22;33336;36.728;-4.414;2024-03-08T21:48:44;15.00;99.90
47618;DHT22;33336;36.728;-4.414;2024-03-08T21:53:48;15.20;99.90
47618;DHT22;33336;36.728;-4.414;2024-03-08T21:58:52;15.00;99.90
47618;DHT22;33336;36.728;-4.414;2024-03-08T22:03:56;15.10;99.90
47618;DHT22;33336;36.728;-4.414;2024-03-08T22:08:59;14.90;99.90
47618;DHT22;33336;36.728;-4.414;2024-03-08T22:14:04;14.80;99.90
47618;DHT22;33336;36.728;-4.414;2024-03-08T22:19:08;14.60;99.90
47618;DHT22;33336;36.728;-4.414;2024-03-08T22:24:13;14.60;99.90
47618;DHT22;33336;36.728;-4.414;2024-03-08T22:29:17;14.90;99.90
47618;DHT22;33336;36.728;-4.414;2024-03-08T22:34:21;15.00;99.90
47618;DHT22;33336;36.728;-4.414;2024-03-08T22:39:24;15.10;99.90
47618;DHT22;33336;36.728;-4.414;2024-03-08T22:44:31;15.00;99.90
47618;DHT22;33336;36.728;-4.414;2024-03-08T22:49:35;15.50;99.90
47618;DHT22;33336;36.728;-4.414;2024-03-08T22:54:40;15.40;99.90
47618;DHT22;33336;36.728;-4.414;2024-03-08T22:59:44;15.10;99.90
47618;DHT22;33336;36.728;-4.414;2024-03-08T23:04:49;14.80;99.90
47618;DHT22;33336;36.728;-4.414;2024-03-08T23:09:53;14.80;99.90
47618;DHT22;33336;36.728;-4.414;2024-03-08T23:14:59;14.80;99.90
47618;DHT22;33336;36.728;-4.414;2024-03-08T23:20:02;14.90;99.90
47618;DHT22;33336;36.728;-4.414;2024-03-08T23:25:08;14.90;99.90
47618;DHT22;33336;36.728;-4.414;2024-03-08T23:30:15;14.80;99.90
47618;DHT22;33336;36.728;-4.414;2024-03-08T23:35:20;15.30;99.90
47618;DHT22;33336;36.728;-4.414;2024-03-08T23:40:23;15.00;99.90
47618;DHT22;33336;36.728;-4.414;2024-03-08T23:45:29;15.10;99.90
47618;DHT22;33336;36.728;-4.414;2024-03-08T23:50:32;15.30;99.90
47618;DHT22;33336;36.728;-4.414;2024-03-08T23:55:36;15.70;99.90
